Christine Anderson — WCN2606 — position and weather

sailwx.info

Track history (hours):
 
Tides and Currents Weather Stations Pressure Air Temp Water Temp Dewpoint Dewpoint Depression Visibility Wind Speed Wind Dir Waves Ship Positions

Christine Anderson

Owner: PIERCE, COUNTY OF, TACOMA, WA. More information available from US FCC via Universal Licensing System and Coast Guard Vessel Documentation Center.

Last reported at 2017-Aug-24 04:28 UTC. Time now 2017-Aug-24 10:24 UTC.
Position N 47°10' W 122°36'.

Length 60 m; draft 3 m.

Type: Passenger vessel. MMSI: 366659730.

Date/timePositionNaut miles runAvg speedWind from/ knotsBaromVisibWave heightAir tempDewpointWater temp
2017-Aug-24 04:28N 47°10' W 122°36'3 6.5
2017-Aug-24 04:00N 47°11' W 122°41'3 5.9
2017-Aug-24 03:30N 47°11' W 122°36'2 2.9
2017-Aug-24 02:58N 47°11' W 122°38'1 2.4
2017-Aug-24 02:30N 47°10' W 122°38'2 4.4
2017-Aug-24 02:00N 47°11' W 122°41'3 4.2
2017-Aug-24 01:18N 47°11' W 122°36'3 7.0
2017-Aug-24 00:54N 47°11' W 122°41'3 5.5
2017-Aug-24 00:21N 47°10' W 122°36'3 5.9
2017-Aug-23 23:50N 47°11' W 122°41'3 7.4
2017-Aug-23 23:26N 47°10' W 122°36'2 4.0
2017-Aug-23 23:00N 47°11' W 122°39'1 1.2
2017-Aug-23 22:30N 47°11' W 122°38'0 0.9
2017-Aug-23 22:00N 47°11' W 122°38'0 0.6
2017-Aug-23 21:30N 47°11' W 122°38'2 3.0
2017-Aug-23 20:59N 47°10' W 122°36'0 0.0
2017-Aug-23 20:28N 47°10' W 122°36'1 1.9
2017-Aug-23 19:57N 47°10' W 122°37'2 5.2
2017-Aug-23 19:30N 47°11' W 122°41'3 1.9
2017-Aug-23 17:55N 47°10' W 122°36'3 6.2
2017-Aug-23 17:26N 47°11' W 122°41'3 5.6
2017-Aug-23 16:53N 47°10' W 122°36'3 6.5
2017-Aug-23 16:25N 47°11' W 122°41'3 4.4
2017-Aug-23 15:49N 47°11' W 122°37'3 6.4
2017-Aug-23 15:24N 47°11' W 122°41'3 6.1
2017-Aug-23 14:54N 47°10' W 122°36'3 7.4
2017-Aug-23 14:29N 47°11' W 122°41'2 2.2
2017-Aug-23 13:27N 47°11' W 122°37'2 4.0
2017-Aug-23 13:00N 47°11' W 122°40'2 5.0
2017-Aug-23 12:30N 47°11' W 122°36'2 4.7
2017-Aug-23 11:58N 47°11' W 122°40'2 0.3
2017-Aug-23 04:25N 47°10' W 122°36'3 7.5
2017-Aug-23 04:01N 47°11' W 122°41'2 3.8
2017-Aug-23 03:23N 47°11' W 122°37'1 3.1
2017-Aug-23 02:58N 47°11' W 122°39'1 2.8
2017-Aug-23 02:30N 47°10' W 122°38'2 4.1
2017-Aug-23 01:57N 47°11' W 122°41'3 4.5
2017-Aug-23 01:17N 47°10' W 122°36'310.5
2017-Aug-23 01:00N 47°11' W 122°41'3 6.1
2017-Aug-23 00:31N 47°10' W 122°36'2 4.7
2017-Aug-22 23:59N 47°11' W 122°40'2 3.8
2017-Aug-22 23:21N 47°10' W 122°36'3 4.7
2017-Aug-22 22:44N 47°11' W 122°40'2 2.7
2017-Aug-22 22:00N 47°11' W 122°38'0 0.9
2017-Aug-22 21:28N 47°11' W 122°38'1 3.2
2017-Aug-22 21:00N 47°10' W 122°36'0 0.0
2017-Aug-22 20:28N 47°10' W 122°36'1 2.5
2017-Aug-22 19:59N 47°10' W 122°38'2 3.5
2017-Aug-22 19:20N 47°11' W 122°41'3 8.3
2017-Aug-22 18:58N 47°10' W 122°36'0 0.1
2017-Aug-22 17:49N 47°11' W 122°36'3 7.3
2017-Aug-22 17:25N 47°11' W 122°41'2 3.5
2017-Aug-22 16:46N 47°11' W 122°37'2 8.3
2017-Aug-22 16:29N 47°11' W 122°41'2 3.4
2017-Aug-22 15:45N 47°11' W 122°37'2 7.0
2017-Aug-22 15:24N 47°11' W 122°41'3 6.8
2017-Aug-22 14:57N 47°10' W 122°36'3 6.6
2017-Aug-22 14:30N 47°11' W 122°41'2 4.5
2017-Aug-22 14:00N 47°10' W 122°38'1 1.9
2017-Aug-22 13:28N 47°11' W 122°37'2 4.6
2017-Aug-22 13:00N 47°11' W 122°40'2 4.9
2017-Aug-22 12:30N 47°11' W 122°37'2 4.9
2017-Aug-22 12:00N 47°11' W 122°40'3 0.4
2017-Aug-22 04:26N 47°11' W 122°36'3 6.2
2017-Aug-22 03:57N 47°11' W 122°41'3 5.7
2017-Aug-22 03:26N 47°10' W 122°36'3 7.2
2017-Aug-22 03:00N 47°11' W 122°41'3 4.4
2017-Aug-22 02:21N 47°11' W 122°36'3 8.0
2017-Aug-22 02:00N 47°11' W 122°41'3 6.1
2017-Aug-22 01:30N 47°10' W 122°36'3 5.9
2017-Aug-22 01:00N 47°11' W 122°40'2 2.2
2017-Aug-22 00:02N 47°11' W 122°37'010.7
2017-Aug-22 00:00N 47°11' W 122°38'1 1.3
2017-Aug-21 23:30N 47°11' W 122°39'1 1.4
2017-Aug-21 23:00N 47°11' W 122°38'1 1.3
2017-Aug-21 22:30N 47°11' W 122°39'1 1.1
2017-Aug-21 22:00N 47°11' W 122°38'1 1.2
2017-Aug-21 21:29N 47°11' W 122°39'2 1.8
2017-Aug-21 20:31N 47°10' W 122°36'010.6
2017-Aug-21 20:30N 47°10' W 122°37'0 0.0
2017-Aug-21 02:08N 47°10' W 122°36'0 0.1
2017-Aug-21 01:59N 47°10' W 122°36'3 6.0
2017-Aug-21 01:29N 47°11' W 122°41'3 5.2
2017-Aug-21 00:54N 47°10' W 122°36'3 7.7
2017-Aug-21 00:30N 47°11' W 122°41'1 2.8
2017-Aug-21 00:00N 47°11' W 122°38'1 1.1
2017-Aug-20 23:30N 47°11' W 122°38'0 0.3
2017-Aug-20 23:00N 47°11' W 122°38'1 2.4
2017-Aug-20 22:29N 47°11' W 122°40'2 3.9
2017-Aug-20 21:53N 47°10' W 122°36'2 5.9
2017-Aug-20 21:30N 47°11' W 122°39'1 1.9
2017-Aug-20 21:00N 47°11' W 122°38'1 2.7
2017-Aug-20 20:30N 47°10' W 122°36'3 5.8
2017-Aug-20 20:00N 47°11' W 122°40'3 4.7
2017-Aug-20 19:23N 47°10' W 122°36'0 0.0
2017-Aug-20 19:00N 47°10' W 122°36'1 0.0
2017-Aug-19 01:51N 47°11' W 122°37'2 4.7
2017-Aug-19 01:23N 47°11' W 122°41'3 6.1
2017-Aug-19 00:53N 47°10' W 122°36'3 7.9
2017-Aug-19 00:30N 47°11' W 122°41'2 4.7
2017-Aug-19 00:00N 47°11' W 122°37'1 1.7
2017-Aug-18 23:30N 47°10' W 122°38'1 1.1
2017-Aug-18 23:00N 47°11' W 122°38'1 1.2
2017-Aug-18 22:30N 47°10' W 122°38'1 1.5
2017-Aug-18 22:00N 47°11' W 122°38'0 0.9
2017-Aug-18 21:30N 47°11' W 122°38'0 0.8
2017-Aug-18 21:00N 47°11' W 122°39'2 2.8
2017-Aug-18 20:26N 47°10' W 122°36'3 4.8
2017-Aug-18 19:49N 47°11' W 122°40'3 5.5
2017-Aug-18 19:17N 47°10' W 122°36'0 0.1
2017-Aug-18 18:57N 47°10' W 122°36'0 0.0
2017-Aug-18 18:18N 47°10' W 122°36'0 0.0
2017-Aug-18 18:00N 47°10' W 122°36'0 0.0
2017-Aug-18 17:30N 47°10' W 122°36'  
Track history (hours):
 
Tides and Currents Weather Stations Pressure Air Temp Water Temp Dewpoint Dewpoint Depression Visibility Wind Speed Wind Dir Waves Ship Positions

Christine Anderson

Owner: PIERCE, COUNTY OF, TACOMA, WA. More information available from US FCC via Universal Licensing System and Coast Guard Vessel Documentation Center.

Last reported at 2017-Aug-24 04:28 UTC. Time now 2017-Aug-24 10:24 UTC.
Position N 47°10' W 122°36'.

Length 60 m; draft 3 m.

Type: Passenger vessel. MMSI: 366659730.

Date/timePositionNaut miles runAvg speedWind from/ knotsBaromVisibWave heightAir tempDewpointWater temp
2017-Aug-24 04:28N 47°10' W 122°36'3 6.5
2017-Aug-24 04:00N 47°11' W 122°41'3 5.9
2017-Aug-24 03:30N 47°11' W 122°36'2 2.9
2017-Aug-24 02:58N 47°11' W 122°38'1 2.4
2017-Aug-24 02:30N 47°10' W 122°38'2 4.4
2017-Aug-24 02:00N 47°11' W 122°41'3 4.2
2017-Aug-24 01:18N 47°11' W 122°36'3 7.0
2017-Aug-24 00:54N 47°11' W 122°41'3 5.5
2017-Aug-24 00:21N 47°10' W 122°36'3 5.9
2017-Aug-23 23:50N 47°11' W 122°41'3 7.4
2017-Aug-23 23:26N 47°10' W 122°36'2 4.0
2017-Aug-23 23:00N 47°11' W 122°39'1 1.2
2017-Aug-23 22:30N 47°11' W 122°38'0 0.9
2017-Aug-23 22:00N 47°11' W 122°38'0 0.6
2017-Aug-23 21:30N 47°11' W 122°38'2 3.0
2017-Aug-23 20:59N 47°10' W 122°36'0 0.0
2017-Aug-23 20:28N 47°10' W 122°36'1 1.9
2017-Aug-23 19:57N 47°10' W 122°37'2 5.2
2017-Aug-23 19:30N 47°11' W 122°41'3 1.9
2017-Aug-23 17:55N 47°10' W 122°36'3 6.2
2017-Aug-23 17:26N 47°11' W 122°41'3 5.6
2017-Aug-23 16:53N 47°10' W 122°36'3 6.5
2017-Aug-23 16:25N 47°11' W 122°41'3 4.4
2017-Aug-23 15:49N 47°11' W 122°37'3 6.4
2017-Aug-23 15:24N 47°11' W 122°41'3 6.1
2017-Aug-23 14:54N 47°10' W 122°36'3 7.4
2017-Aug-23 14:29N 47°11' W 122°41'2 2.2
2017-Aug-23 13:27N 47°11' W 122°37'2 4.0
2017-Aug-23 13:00N 47°11' W 122°40'2 5.0
2017-Aug-23 12:30N 47°11' W 122°36'2 4.7
2017-Aug-23 11:58N 47°11' W 122°40'2 0.3
2017-Aug-23 04:25N 47°10' W 122°36'3 7.5
2017-Aug-23 04:01N 47°11' W 122°41'2 3.8
2017-Aug-23 03:23N 47°11' W 122°37'1 3.1
2017-Aug-23 02:58N 47°11' W 122°39'1 2.8
2017-Aug-23 02:30N 47°10' W 122°38'2 4.1
2017-Aug-23 01:57N 47°11' W 122°41'3 4.5
2017-Aug-23 01:17N 47°10' W 122°36'310.5
2017-Aug-23 01:00N 47°11' W 122°41'3 6.1
2017-Aug-23 00:31N 47°10' W 122°36'2 4.7
2017-Aug-22 23:59N 47°11' W 122°40'2 3.8
2017-Aug-22 23:21N 47°10' W 122°36'3 4.7
2017-Aug-22 22:44N 47°11' W 122°40'2 2.7
2017-Aug-22 22:00N 47°11' W 122°38'0 0.9
2017-Aug-22 21:28N 47°11' W 122°38'1 3.2
2017-Aug-22 21:00N 47°10' W 122°36'0 0.0
2017-Aug-22 20:28N 47°10' W 122°36'1 2.5
2017-Aug-22 19:59N 47°10' W 122°38'2 3.5
2017-Aug-22 19:20N 47°11' W 122°41'3 8.3
2017-Aug-22 18:58N 47°10' W 122°36'0 0.1
2017-Aug-22 17:49N 47°11' W 122°36'3 7.3
2017-Aug-22 17:25N 47°11' W 122°41'2 3.5
2017-Aug-22 16:46N 47°11' W 122°37'2 8.3
2017-Aug-22 16:29N 47°11' W 122°41'2 3.4
2017-Aug-22 15:45N 47°11' W 122°37'2 7.0
2017-Aug-22 15:24N 47°11' W 122°41'3 6.8
2017-Aug-22 14:57N 47°10' W 122°36'3 6.6
2017-Aug-22 14:30N 47°11' W 122°41'2 4.5
2017-Aug-22 14:00N 47°10' W 122°38'1 1.9
2017-Aug-22 13:28N 47°11' W 122°37'2 4.6
2017-Aug-22 13:00N 47°11' W 122°40'2 4.9
2017-Aug-22 12:30N 47°11' W 122°37'2 4.9
2017-Aug-22 12:00N 47°11' W 122°40'3 0.4
2017-Aug-22 04:26N 47°11' W 122°36'3 6.2
2017-Aug-22 03:57N 47°11' W 122°41'3 5.7
2017-Aug-22 03:26N 47°10' W 122°36'3 7.2
2017-Aug-22 03:00N 47°11' W 122°41'3 4.4
2017-Aug-22 02:21N 47°11' W 122°36'3 8.0
2017-Aug-22 02:00N 47°11' W 122°41'3 6.1
2017-Aug-22 01:30N 47°10' W 122°36'3 5.9
2017-Aug-22 01:00N 47°11' W 122°40'2 2.2
2017-Aug-22 00:02N 47°11' W 122°37'010.7
2017-Aug-22 00:00N 47°11' W 122°38'1 1.3
2017-Aug-21 23:30N 47°11' W 122°39'1 1.4
2017-Aug-21 23:00N 47°11' W 122°38'1 1.3
2017-Aug-21 22:30N 47°11' W 122°39'1 1.1
2017-Aug-21 22:00N 47°11' W 122°38'1 1.2
2017-Aug-21 21:29N 47°11' W 122°39'2 1.8
2017-Aug-21 20:31N 47°10' W 122°36'010.6
2017-Aug-21 20:30N 47°10' W 122°37'0 0.0
2017-Aug-21 02:08N 47°10' W 122°36'0 0.1
2017-Aug-21 01:59N 47°10' W 122°36'3 6.0
2017-Aug-21 01:29N 47°11' W 122°41'3 5.2
2017-Aug-21 00:54N 47°10' W 122°36'3 7.7
2017-Aug-21 00:30N 47°11' W 122°41'1 2.8
2017-Aug-21 00:00N 47°11' W 122°38'1 1.1
2017-Aug-20 23:30N 47°11' W 122°38'0 0.3
2017-Aug-20 23:00N 47°11' W 122°38'1 2.4
2017-Aug-20 22:29N 47°11' W 122°40'2 3.9
2017-Aug-20 21:53N 47°10' W 122°36'2 5.9
2017-Aug-20 21:30N 47°11' W 122°39'1 1.9
2017-Aug-20 21:00N 47°11' W 122°38'1 2.7
2017-Aug-20 20:30N 47°10' W 122°36'3 5.8
2017-Aug-20 20:00N 47°11' W 122°40'3 4.7
2017-Aug-20 19:23N 47°10' W 122°36'0 0.0
2017-Aug-20 19:00N 47°10' W 122°36'1 0.0
2017-Aug-19 01:51N 47°11' W 122°37'2 4.7
2017-Aug-19 01:23N 47°11' W 122°41'3 6.1
2017-Aug-19 00:53N 47°10' W 122°36'3 7.9
2017-Aug-19 00:30N 47°11' W 122°41'2 4.7
2017-Aug-19 00:00N 47°11' W 122°37'1 1.7
2017-Aug-18 23:30N 47°10' W 122°38'1 1.1
2017-Aug-18 23:00N 47°11' W 122°38'1 1.2
2017-Aug-18 22:30N 47°10' W 122°38'1 1.5
2017-Aug-18 22:00N 47°11' W 122°38'0 0.9
2017-Aug-18 21:30N 47°11' W 122°38'0 0.8
2017-Aug-18 21:00N 47°11' W 122°39'2 2.8
2017-Aug-18 20:26N 47°10' W 122°36'3 4.8
2017-Aug-18 19:49N 47°11' W 122°40'3 5.5
2017-Aug-18 19:17N 47°10' W 122°36'0 0.1
2017-Aug-18 18:57N 47°10' W 122°36'0 0.0
2017-Aug-18 18:18N 47°10' W 122°36'0 0.0
2017-Aug-18 18:00N 47°10' W 122°36'0 0.0
2017-Aug-18 17:30N 47°10' W 122°36'  

Dump ship's entire track history